sensor_id;sensor_type;location;lat;lon;timestamp;P1;durP1;ratioP1;P2;durP2;ratioP2
51602;SDS011;37954;51.980;5.850;2022-10-30T00:03:09;16.20;;;9.82;;
51602;SDS011;37954;51.980;5.850;2022-10-30T00:07:23;12.60;;;8.90;;
51602;SDS011;37954;51.980;5.850;2022-10-30T00:11:34;17.88;;;9.27;;
51602;SDS011;37954;51.980;5.850;2022-10-30T00:15:50;12.43;;;7.07;;
51602;SDS011;37954;51.980;5.850;2022-10-30T00:20:03;11.90;;;7.15;;
51602;SDS011;37954;51.980;5.850;2022-10-30T00:24:15;13.45;;;7.45;;
51602;SDS011;37954;51.980;5.850;2022-10-30T00:28:26;11.73;;;6.93;;
51602;SDS011;37954;51.980;5.850;2022-10-30T00:32:38;8.25;;;5.68;;
51602;SDS011;37954;51.980;5.850;2022-10-30T00:36:49;7.13;;;5.88;;
51602;SDS011;37954;51.980;5.850;2022-10-30T00:41:01;11.45;;;5.50;;
51602;SDS011;37954;51.980;5.850;2022-10-30T00:45:14;8.63;;;5.65;;
51602;SDS011;37954;51.980;5.850;2022-10-30T00:49:27;12.48;;;6.15;;
51602;SDS011;37954;51.980;5.850;2022-10-30T00:53:39;8.98;;;5.68;;
51602;SDS011;37954;51.980;5.850;2022-10-30T00:57:52;9.93;;;5.75;;
51602;SDS011;37954;51.980;5.850;2022-10-30T01:02:04;10.25;;;6.20;;
51602;SDS011;37954;51.980;5.850;2022-10-30T01:06:17;10.13;;;6.00;;
51602;SDS011;37954;51.980;5.850;2022-10-30T01:10:29;7.72;;;6.20;;
51602;SDS011;37954;51.980;5.850;2022-10-30T01:14:52;10.05;;;6.40;;
51602;SDS011;37954;51.980;5.850;2022-10-30T01:19:22;8.60;;;5.65;;
51602;SDS011;37954;51.980;5.850;2022-10-30T01:23:52;10.07;;;6.45;;
51602;SDS011;37954;51.980;5.850;2022-10-30T01:33:00;10.95;;;6.00;;
51602;SDS011;37954;51.980;5.850;2022-10-30T01:37:56;8.18;;;5.90;;
51602;SDS011;37954;51.980;5.850;2022-10-30T01:51:48;8.77;;;6.18;;
51602;SDS011;37954;51.980;5.850;2022-10-30T01:56:14;9.88;;;6.07;;
51602;SDS011;37954;51.980;5.850;2022-10-30T02:00:43;6.55;;;5.90;;
51602;SDS011;37954;51.980;5.850;2022-10-30T02:04:58;8.88;;;5.63;;
51602;SDS011;37954;51.980;5.850;2022-10-30T02:09:10;12.25;;;6.00;;
51602;SDS011;37954;51.980;5.850;2022-10-30T02:13:29;7.60;;;6.00;;
51602;SDS011;37954;51.980;5.850;2022-10-30T02:17:42;8.85;;;6.03;;
51602;SDS011;37954;51.980;5.850;2022-10-30T02:21:55;7.82;;;6.05;;
51602;SDS011;37954;51.980;5.850;2022-10-30T02:26:07;7.35;;;5.32;;
51602;SDS011;37954;51.980;5.850;2022-10-30T02:30:18;8.85;;;5.85;;
51602;SDS011;37954;51.980;5.850;2022-10-30T02:34:30;7.00;;;5.45;;
51602;SDS011;37954;51.980;5.850;2022-10-30T02:38:42;10.60;;;7.00;;
51602;SDS011;37954;51.980;5.850;2022-10-30T02:42:54;8.77;;;6.43;;
51602;SDS011;37954;51.980;5.850;2022-10-30T02:47:06;10.68;;;6.63;;
51602;SDS011;37954;51.980;5.850;2022-10-30T02:51:17;8.10;;;6.15;;
51602;SDS011;37954;51.980;5.850;2022-10-30T02:55:29;9.40;;;6.63;;
51602;SDS011;37954;51.980;5.850;2022-10-30T02:59:41;9.68;;;6.25;;
51602;SDS011;37954;51.980;5.850;2022-10-30T03:03:53;8.07;;;6.28;;
51602;SDS011;37954;51.980;5.850;2022-10-30T03:08:06;10.70;;;6.50;;
51602;SDS011;37954;51.980;5.850;2022-10-30T03:12:17;8.32;;;6.13;;
51602;SDS011;37954;51.980;5.850;2022-10-30T03:16:29;10.52;;;6.35;;
51602;SDS011;37954;51.980;5.850;2022-10-30T03:20:41;9.80;;;6.80;;
51602;SDS011;37954;51.980;5.850;2022-10-30T03:24:52;8.55;;;5.95;;
51602;SDS011;37954;51.980;5.850;2022-10-30T03:29:04;8.05;;;6.03;;
51602;SDS011;37954;51.980;5.850;2022-10-30T03:33:16;12.20;;;6.40;;
51602;SDS011;37954;51.980;5.850;2022-10-30T03:37:28;7.38;;;6.45;;
51602;SDS011;37954;51.980;5.850;2022-10-30T03:41:40;8.07;;;6.40;;
51602;SDS011;37954;51.980;5.850;2022-10-30T03:45:54;10.23;;;6.47;;
51602;SDS011;37954;51.980;5.850;2022-10-30T03:50:07;8.65;;;6.30;;
51602;SDS011;37954;51.980;5.850;2022-10-30T03:54:18;7.57;;;6.38;;
51602;SDS011;37954;51.980;5.850;2022-10-30T03:58:30;9.02;;;6.78;;
51602;SDS011;37954;51.980;5.850;2022-10-30T04:02:44;8.82;;;6.80;;
51602;SDS011;37954;51.980;5.850;2022-10-30T04:07:00;10.77;;;6.78;;
51602;SDS011;37954;51.980;5.850;2022-10-30T04:11:12;8.45;;;6.47;;
51602;SDS011;37954;51.980;5.850;2022-10-30T04:15:23;7.10;;;5.47;;
51602;SDS011;37954;51.980;5.850;2022-10-30T04:19:36;9.90;;;6.68;;
51602;SDS011;37954;51.980;5.850;2022-10-30T04:23:47;10.52;;;7.10;;
51602;SDS011;37954;51.980;5.850;2022-10-30T04:28:00;11.00;;;6.05;;
51602;SDS011;37954;51.980;5.850;2022-10-30T04:32:12;8.30;;;5.95;;
51602;SDS011;37954;51.980;5.850;2022-10-30T04:36:25;7.88;;;6.88;;
51602;SDS011;37954;51.980;5.850;2022-10-30T04:40:43;9.40;;;6.20;;
51602;SDS011;37954;51.980;5.850;2022-10-30T04:44:56;9.68;;;7.40;;
51602;SDS011;37954;51.980;5.850;2022-10-30T04:49:08;7.90;;;6.03;;
51602;SDS011;37954;51.980;5.850;2022-10-30T04:53:19;10.88;;;6.53;;
51602;SDS011;37954;51.980;5.850;2022-10-30T04:57:35;8.05;;;6.47;;
51602;SDS011;37954;51.980;5.850;2022-10-30T05:01:48;11.25;;;6.43;;
51602;SDS011;37954;51.980;5.850;2022-10-30T05:06:01;16.15;;;7.28;;
51602;SDS011;37954;51.980;5.850;2022-10-30T05:10:33;10.57;;;7.05;;
51602;SDS011;37954;51.980;5.850;2022-10-30T05:14:44;15.05;;;7.53;;
51602;SDS011;37954;51.980;5.850;2022-10-30T05:18:56;9.20;;;7.10;;
51602;SDS011;37954;51.980;5.850;2022-10-30T05:23:08;11.57;;;6.65;;
51602;SDS011;37954;51.980;5.850;2022-10-30T05:27:19;8.40;;;6.18;;
51602;SDS011;37954;51.980;5.850;2022-10-30T05:31:31;12.65;;;7.88;;
51602;SDS011;37954;51.980;5.850;2022-10-30T05:35:58;10.52;;;8.07;;
51602;SDS011;37954;51.980;5.850;2022-10-30T05:40:11;11.73;;;7.53;;
51602;SDS011;37954;51.980;5.850;2022-10-30T05:44:22;10.38;;;7.10;;
51602;SDS011;37954;51.980;5.850;2022-10-30T05:48:51;8.77;;;7.50;;
51602;SDS011;37954;51.980;5.850;2022-10-30T05:53:04;11.60;;;8.05;;
51602;SDS011;37954;51.980;5.850;2022-10-30T05:57:16;11.88;;;8.90;;
51602;SDS011;37954;51.980;5.850;2022-10-30T06:01:28;13.98;;;9.23;;
51602;SDS011;37954;51.980;5.850;2022-10-30T06:05:44;11.57;;;9.10;;
51602;SDS011;37954;51.980;5.850;2022-10-30T06:09:57;12.13;;;8.35;;
51602;SDS011;37954;51.980;5.850;2022-10-30T06:14:21;10.45;;;9.00;;
51602;SDS011;37954;51.980;5.850;2022-10-30T06:18:34;10.20;;;8.90;;
51602;SDS011;37954;51.980;5.850;2022-10-30T06:22:56;11.02;;;8.63;;
51602;SDS011;37954;51.980;5.850;2022-10-30T06:27:35;11.93;;;8.60;;
51602;SDS011;37954;51.980;5.850;2022-10-30T06:31:46;11.73;;;8.27;;
51602;SDS011;37954;51.980;5.850;2022-10-30T06:35:58;13.57;;;8.88;;
51602;SDS011;37954;51.980;5.850;2022-10-30T06:40:10;10.45;;;8.50;;
51602;SDS011;37954;51.980;5.850;2022-10-30T06:44:40;10.10;;;8.30;;
51602;SDS011;37954;51.980;5.850;2022-10-30T06:48:52;9.35;;;6.90;;
51602;SDS011;37954;51.980;5.850;2022-10-30T06:53:03;11.93;;;7.75;;
51602;SDS011;37954;51.980;5.850;2022-10-30T06:57:16;11.48;;;8.55;;
51602;SDS011;37954;51.980;5.850;2022-10-30T07:01:46;12.52;;;7.88;;
51602;SDS011;37954;51.980;5.850;2022-10-30T07:06:00;11.25;;;8.02;;
51602;SDS011;37954;51.980;5.850;2022-10-30T07:10:12;17.02;;;7.07;;
51602;SDS011;37954;51.980;5.850;2022-10-30T07:14:43;11.57;;;7.65;;
51602;SDS011;37954;51.980;5.850;2022-10-30T07:19:14;9.23;;;7.15;;
51602;SDS011;37954;51.980;5.850;2022-10-30T07:23:26;13.10;;;6.75;;
51602;SDS011;37954;51.980;5.850;2022-10-30T07:27:46;9.48;;;7.05;;
51602;SDS011;37954;51.980;5.850;2022-10-30T07:32:18;10.88;;;7.72;;
51602;SDS011;37954;51.980;5.850;2022-10-30T07:36:35;14.48;;;10.15;;
51602;SDS011;37954;51.980;5.850;2022-10-30T07:40:54;17.60;;;10.40;;
51602;SDS011;37954;51.980;5.850;2022-10-30T07:45:26;15.85;;;10.13;;
51602;SDS011;37954;51.980;5.850;2022-10-30T07:49:56;14.00;;;9.45;;
51602;SDS011;37954;51.980;5.850;2022-10-30T07:54:08;15.48;;;10.48;;
51602;SDS011;37954;51.980;5.850;2022-10-30T07:58:20;12.80;;;9.05;;
51602;SDS011;37954;51.980;5.850;2022-10-30T08:02:55;14.55;;;9.88;;
51602;SDS011;37954;51.980;5.850;2022-10-30T08:07:28;15.20;;;9.65;;
51602;SDS011;37954;51.980;5.850;2022-10-30T08:11:41;16.45;;;10.82;;
51602;SDS011;37954;51.980;5.850;2022-10-30T08:15:53;13.27;;;8.90;;
51602;SDS011;37954;51.980;5.850;2022-10-30T08:20:05;12.73;;;7.20;;
51602;SDS011;37954;51.980;5.850;2022-10-30T08:24:17;8.55;;;6.47;;
51602;SDS011;37954;51.980;5.850;2022-10-30T08:28:31;9.88;;;6.38;;
51602;SDS011;37954;51.980;5.850;2022-10-30T08:32:45;8.93;;;6.00;;
51602;SDS011;37954;51.980;5.850;2022-10-30T08:37:35;17.27;;;6.25;;
51602;SDS011;37954;51.980;5.850;2022-10-30T08:41:47;11.90;;;7.03;;
51602;SDS011;37954;51.980;5.850;2022-10-30T08:45:58;10.50;;;6.72;;
51602;SDS011;37954;51.980;5.850;2022-10-30T08:50:11;10.40;;;6.60;;
51602;SDS011;37954;51.980;5.850;2022-10-30T08:54:22;9.88;;;6.38;;
51602;SDS011;37954;51.980;5.850;2022-10-30T08:58:34;9.77;;;6.55;;
51602;SDS011;37954;51.980;5.850;2022-10-30T09:02:46;15.23;;;6.72;;
51602;SDS011;37954;51.980;5.850;2022-10-30T09:07:20;8.30;;;5.93;;
51602;SDS011;37954;51.980;5.850;2022-10-30T09:12:10;9.35;;;6.07;;
51602;SDS011;37954;51.980;5.850;2022-10-30T09:16:26;11.98;;;5.57;;
51602;SDS011;37954;51.980;5.850;2022-10-30T09:20:37;9.77;;;6.57;;
51602;SDS011;37954;51.980;5.850;2022-10-30T09:24:49;8.93;;;5.95;;
51602;SDS011;37954;51.980;5.850;2022-10-30T09:29:26;8.65;;;6.25;;
51602;SDS011;37954;51.980;5.850;2022-10-30T09:33:45;9.43;;;5.88;;
51602;SDS011;37954;51.980;5.850;2022-10-30T09:38:16;7.43;;;6.07;;
51602;SDS011;37954;51.980;5.850;2022-10-30T09:47:03;7.57;;;6.30;;
51602;SDS011;37954;51.980;5.850;2022-10-30T09:55:46;9.35;;;6.40;;
51602;SDS011;37954;51.980;5.850;2022-10-30T10:00:08;9.40;;;6.63;;
51602;SDS011;37954;51.980;5.850;2022-10-30T10:04:27;9.30;;;6.90;;
51602;SDS011;37954;51.980;5.850;2022-10-30T10:09:16;8.48;;;6.65;;
51602;SDS011;37954;51.980;5.850;2022-10-30T10:14:03;9.45;;;6.35;;
51602;SDS011;37954;51.980;5.850;2022-10-30T10:18:28;14.30;;;6.40;;
51602;SDS011;37954;51.980;5.850;2022-10-30T10:22:47;8.43;;;6.70;;
51602;SDS011;37954;51.980;5.850;2022-10-30T10:31:39;11.23;;;5.80;;
51602;SDS011;37954;51.980;5.850;2022-10-30T10:36:19;9.43;;;5.78;;
51602;SDS011;37954;51.980;5.850;2022-10-30T10:45:42;12.45;;;6.82;;
51602;SDS011;37954;51.980;5.850;2022-10-30T10:54:48;7.53;;;6.68;;
51602;SDS011;37954;51.980;5.850;2022-10-30T10:59:04;10.10;;;6.15;;
51602;SDS011;37954;51.980;5.850;2022-10-30T11:03:43;9.98;;;6.28;;
51602;SDS011;37954;51.980;5.850;2022-10-30T11:08:08;9.23;;;6.07;;
51602;SDS011;37954;51.980;5.850;2022-10-30T11:12:38;21.25;;;6.82;;
51602;SDS011;37954;51.980;5.850;2022-10-30T11:16:51;9.52;;;5.97;;
51602;SDS011;37954;51.980;5.850;2022-10-30T11:21:08;9.40;;;5.93;;
51602;SDS011;37954;51.980;5.850;2022-10-30T11:25:22;7.82;;;6.40;;
51602;SDS011;37954;51.980;5.850;2022-10-30T11:29:45;11.05;;;6.45;;
51602;SDS011;37954;51.980;5.850;2022-10-30T11:34:19;11.18;;;6.97;;
51602;SDS011;37954;51.980;5.850;2022-10-30T11:38:35;8.60;;;5.63;;
51602;SDS011;37954;51.980;5.850;2022-10-30T11:42:48;10.00;;;6.18;;
51602;SDS011;37954;51.980;5.850;2022-10-30T11:47:10;9.35;;;5.72;;
51602;SDS011;37954;51.980;5.850;2022-10-30T11:51:33;8.55;;;6.13;;
51602;SDS011;37954;51.980;5.850;2022-10-30T11:55:49;9.30;;;6.13;;
51602;SDS011;37954;51.980;5.850;2022-10-30T12:04:38;10.52;;;6.28;;
51602;SDS011;37954;51.980;5.850;2022-10-30T12:09:00;8.43;;;5.78;;
51602;SDS011;37954;51.980;5.850;2022-10-30T12:13:20;9.38;;;5.85;;
51602;SDS011;37954;51.980;5.850;2022-10-30T12:17:33;8.48;;;5.57;;
51602;SDS011;37954;51.980;5.850;2022-10-30T12:21:49;7.38;;;5.32;;
51602;SDS011;37954;51.980;5.850;2022-10-30T12:26:09;9.20;;;5.50;;
51602;SDS011;37954;51.980;5.850;2022-10-30T12:30:22;5.93;;;5.25;;
51602;SDS011;37954;51.980;5.850;2022-10-30T12:39:11;8.23;;;5.18;;
51602;SDS011;37954;51.980;5.850;2022-10-30T12:43:28;10.30;;;4.95;;
51602;SDS011;37954;51.980;5.850;2022-10-30T12:47:47;9.90;;;4.60;;
51602;SDS011;37954;51.980;5.850;2022-10-30T12:56:25;7.03;;;5.03;;
51602;SDS011;37954;51.980;5.850;2022-10-30T13:00:49;11.60;;;4.70;;
51602;SDS011;37954;51.980;5.850;2022-10-30T13:05:21;8.98;;;4.60;;
51602;SDS011;37954;51.980;5.850;2022-10-30T13:09:54;7.45;;;4.90;;
51602;SDS011;37954;51.980;5.850;2022-10-30T13:14:18;8.90;;;5.03;;
51602;SDS011;37954;51.980;5.850;2022-10-30T13:18:32;9.98;;;5.32;;
51602;SDS011;37954;51.980;5.850;2022-10-30T13:22:55;6.28;;;4.63;;
51602;SDS011;37954;51.980;5.850;2022-10-30T13:27:21;10.02;;;5.20;;
51602;SDS011;37954;51.980;5.850;2022-10-30T13:40:30;7.45;;;5.32;;
51602;SDS011;37954;51.980;5.850;2022-10-30T13:45:00;7.25;;;5.68;;
51602;SDS011;37954;51.980;5.850;2022-10-30T13:54:10;9.20;;;4.88;;
51602;SDS011;37954;51.980;5.850;2022-10-30T13:58:38;7.38;;;5.13;;
51602;SDS011;37954;51.980;5.850;2022-10-30T14:07:55;6.97;;;4.90;;
51602;SDS011;37954;51.980;5.850;2022-10-30T14:17:15;6.20;;;4.97;;
51602;SDS011;37954;51.980;5.850;2022-10-30T14:26:10;14.02;;;5.70;;
51602;SDS011;37954;51.980;5.850;2022-10-30T14:30:19;5.88;;;5.07;;
51602;SDS011;37954;51.980;5.850;2022-10-30T14:34:41;10.57;;;5.72;;
51602;SDS011;37954;51.980;5.850;2022-10-30T14:43:25;10.68;;;6.55;;
51602;SDS011;37954;51.980;5.850;2022-10-30T14:52:30;10.63;;;5.47;;
51602;SDS011;37954;51.980;5.850;2022-10-30T14:56:48;10.48;;;5.88;;
51602;SDS011;37954;51.980;5.850;2022-10-30T15:05:52;9.07;;;5.90;;
51602;SDS011;37954;51.980;5.850;2022-10-30T15:10:16;7.88;;;6.28;;
51602;SDS011;37954;51.980;5.850;2022-10-30T15:14:37;8.85;;;6.70;;
51602;SDS011;37954;51.980;5.850;2022-10-30T15:19:08;9.73;;;7.00;;
51602;SDS011;37954;51.980;5.850;2022-10-30T15:23:25;10.02;;;7.28;;
51602;SDS011;37954;51.980;5.850;2022-10-30T15:27:42;8.48;;;6.40;;
51602;SDS011;37954;51.980;5.850;2022-10-30T15:31:57;9.73;;;6.55;;
51602;SDS011;37954;51.980;5.850;2022-10-30T15:36:15;11.25;;;7.10;;
51602;SDS011;37954;51.980;5.850;2022-10-30T15:40:28;11.38;;;7.13;;
51602;SDS011;37954;51.980;5.850;2022-10-30T15:44:41;8.88;;;7.25;;
51602;SDS011;37954;51.980;5.850;2022-10-30T15:48:55;9.68;;;6.63;;
51602;SDS011;37954;51.980;5.850;2022-10-30T15:53:20;10.82;;;7.43;;
51602;SDS011;37954;51.980;5.850;2022-10-30T15:57:36;10.13;;;6.90;;
51602;SDS011;37954;51.980;5.850;2022-10-30T16:02:21;9.40;;;6.72;;
51602;SDS011;37954;51.980;5.850;2022-10-30T16:06:34;11.75;;;7.22;;
51602;SDS011;37954;51.980;5.850;2022-10-30T16:10:46;9.70;;;6.65;;
51602;SDS011;37954;51.980;5.850;2022-10-30T16:15:01;9.65;;;7.43;;
51602;SDS011;37954;51.980;5.850;2022-10-30T16:19:24;12.60;;;8.63;;
51602;SDS011;37954;51.980;5.850;2022-10-30T16:23:46;12.75;;;9.15;;
51602;SDS011;37954;51.980;5.850;2022-10-30T16:28:00;11.00;;;8.13;;
51602;SDS011;37954;51.980;5.850;2022-10-30T16:32:16;11.38;;;8.85;;
51602;SDS011;37954;51.980;5.850;2022-10-30T16:36:31;12.63;;;9.48;;
51602;SDS011;37954;51.980;5.850;2022-10-30T16:40:43;13.77;;;9.23;;
51602;SDS011;37954;51.980;5.850;2022-10-30T16:45:06;14.27;;;10.35;;
51602;SDS011;37954;51.980;5.850;2022-10-30T16:49:30;11.07;;;8.43;;
51602;SDS011;37954;51.980;5.850;2022-10-30T16:53:47;11.05;;;8.02;;
51602;SDS011;37954;51.980;5.850;2022-10-30T16:58:00;14.02;;;8.85;;
51602;SDS011;37954;51.980;5.850;2022-10-30T17:02:14;10.50;;;7.85;;
51602;SDS011;37954;51.980;5.850;2022-10-30T17:15:11;9.57;;;7.07;;
51602;SDS011;37954;51.980;5.850;2022-10-30T17:23:44;10.07;;;7.20;;
51602;SDS011;37954;51.980;5.850;2022-10-30T17:28:01;8.90;;;6.85;;
51602;SDS011;37954;51.980;5.850;2022-10-30T17:32:17;10.43;;;7.75;;
51602;SDS011;37954;51.980;5.850;2022-10-30T17:36:30;10.85;;;7.97;;
51602;SDS011;37954;51.980;5.850;2022-10-30T17:40:42;11.85;;;7.55;;
51602;SDS011;37954;51.980;5.850;2022-10-30T17:44:53;7.80;;;6.82;;
51602;SDS011;37954;51.980;5.850;2022-10-30T17:49:06;12.30;;;7.43;;
51602;SDS011;37954;51.980;5.850;2022-10-30T17:53:30;9.57;;;6.68;;
51602;SDS011;37954;51.980;5.850;2022-10-30T17:57:42;10.93;;;6.32;;
51602;SDS011;37954;51.980;5.850;2022-10-30T18:01:55;12.00;;;8.13;;
51602;SDS011;37954;51.980;5.850;2022-10-30T18:06:07;8.48;;;7.40;;
51602;SDS011;37954;51.980;5.850;2022-10-30T18:10:25;8.52;;;6.65;;
51602;SDS011;37954;51.980;5.850;2022-10-30T18:14:37;7.72;;;6.15;;
51602;SDS011;37954;51.980;5.850;2022-10-30T18:18:49;7.80;;;5.97;;
51602;SDS011;37954;51.980;5.850;2022-10-30T18:23:02;9.43;;;6.55;;
51602;SDS011;37954;51.980;5.850;2022-10-30T18:27:14;6.90;;;5.50;;
51602;SDS011;37954;51.980;5.850;2022-10-30T18:31:26;9.23;;;6.35;;
51602;SDS011;37954;51.980;5.850;2022-10-30T18:35:38;7.63;;;6.03;;
51602;SDS011;37954;51.980;5.850;2022-10-30T18:39:49;8.18;;;7.07;;
51602;SDS011;37954;51.980;5.850;2022-10-30T18:44:01;9.30;;;7.68;;
51602;SDS011;37954;51.980;5.850;2022-10-30T18:48:13;11.75;;;8.13;;
51602;SDS011;37954;51.980;5.850;2022-10-30T18:52:25;13.63;;;8.65;;
51602;SDS011;37954;51.980;5.850;2022-10-30T18:56:37;9.48;;;6.90;;
51602;SDS011;37954;51.980;5.850;2022-10-30T19:00:48;15.98;;;7.05;;
51602;SDS011;37954;51.980;5.850;2022-10-30T19:05:30;8.23;;;6.82;;
51602;SDS011;37954;51.980;5.850;2022-10-30T19:09:44;8.10;;;6.68;;
51602;SDS011;37954;51.980;5.850;2022-10-30T19:13:55;10.82;;;6.55;;
51602;SDS011;37954;51.980;5.850;2022-10-30T19:18:07;12.02;;;7.25;;
51602;SDS011;37954;51.980;5.850;2022-10-30T19:22:19;11.13;;;7.38;;
51602;SDS011;37954;51.980;5.850;2022-10-30T19:26:30;10.95;;;7.53;;
51602;SDS011;37954;51.980;5.850;2022-10-30T19:30:42;9.68;;;7.10;;
51602;SDS011;37954;51.980;5.850;2022-10-30T19:35:00;7.78;;;6.97;;
51602;SDS011;37954;51.980;5.850;2022-10-30T19:39:12;11.02;;;7.32;;
51602;SDS011;37954;51.980;5.850;2022-10-30T19:43:26;9.48;;;7.03;;
51602;SDS011;37954;51.980;5.850;2022-10-30T19:47:38;9.68;;;7.40;;
51602;SDS011;37954;51.980;5.850;2022-10-30T19:51:49;11.07;;;7.35;;
51602;SDS011;37954;51.980;5.850;2022-10-30T19:56:01;9.65;;;6.75;;
51602;SDS011;37954;51.980;5.850;2022-10-30T20:00:17;8.55;;;6.18;;
51602;SDS011;37954;51.980;5.850;2022-10-30T20:04:31;10.10;;;6.93;;
51602;SDS011;37954;51.980;5.850;2022-10-30T20:08:42;11.32;;;6.28;;
51602;SDS011;37954;51.980;5.850;2022-10-30T20:12:54;11.32;;;7.28;;
51602;SDS011;37954;51.980;5.850;2022-10-30T20:17:08;9.60;;;6.68;;
51602;SDS011;37954;51.980;5.850;2022-10-30T20:21:20;11.85;;;6.75;;
51602;SDS011;37954;51.980;5.850;2022-10-30T20:25:32;13.95;;;7.30;;
51602;SDS011;37954;51.980;5.850;2022-10-30T20:29:43;12.95;;;7.10;;
51602;SDS011;37954;51.980;5.850;2022-10-30T20:33:55;9.55;;;6.70;;
51602;SDS011;37954;51.980;5.850;2022-10-30T20:38:09;8.82;;;6.40;;
51602;SDS011;37954;51.980;5.850;2022-10-30T20:42:26;8.77;;;6.93;;
51602;SDS011;37954;51.980;5.850;2022-10-30T20:46:44;7.63;;;6.28;;
51602;SDS011;37954;51.980;5.850;2022-10-30T20:50:57;10.23;;;6.53;;
51602;SDS011;37954;51.980;5.850;2022-10-30T20:55:10;7.20;;;5.70;;
51602;SDS011;37954;51.980;5.850;2022-10-30T20:59:22;9.38;;;5.35;;
51602;SDS011;37954;51.980;5.850;2022-10-30T21:03:34;6.68;;;4.72;;
51602;SDS011;37954;51.980;5.850;2022-10-30T21:07:45;8.45;;;5.72;;
51602;SDS011;37954;51.980;5.850;2022-10-30T21:11:57;7.55;;;6.03;;
51602;SDS011;37954;51.980;5.850;2022-10-30T21:16:08;8.45;;;5.75;;
51602;SDS011;37954;51.980;5.850;2022-10-30T21:20:20;8.70;;;5.75;;
51602;SDS011;37954;51.980;5.850;2022-10-30T21:24:31;7.78;;;6.47;;
51602;SDS011;37954;51.980;5.850;2022-10-30T21:28:43;8.27;;;6.65;;
51602;SDS011;37954;51.980;5.850;2022-10-30T21:32:54;7.10;;;5.05;;
51602;SDS011;37954;51.980;5.850;2022-10-30T21:37:06;6.68;;;4.45;;
51602;SDS011;37954;51.980;5.850;2022-10-30T21:41:18;4.75;;;3.95;;
51602;SDS011;37954;51.980;5.850;2022-10-30T21:45:31;7.43;;;4.35;;
51602;SDS011;37954;51.980;5.850;2022-10-30T21:49:43;7.32;;;5.45;;
51602;SDS011;37954;51.980;5.850;2022-10-30T21:53:54;9.30;;;6.43;;
51602;SDS011;37954;51.980;5.850;2022-10-30T21:58:06;10.25;;;5.80;;
51602;SDS011;37954;51.980;5.850;2022-10-30T22:02:18;6.97;;;6.25;;
51602;SDS011;37954;51.980;5.850;2022-10-30T22:06:30;9.30;;;6.30;;
51602;SDS011;37954;51.980;5.850;2022-10-30T22:10:42;7.00;;;6.03;;
51602;SDS011;37954;51.980;5.850;2022-10-30T22:14:53;7.95;;;5.85;;
51602;SDS011;37954;51.980;5.850;2022-10-30T22:19:05;6.63;;;5.68;;
51602;SDS011;37954;51.980;5.850;2022-10-30T22:23:18;9.15;;;6.00;;
51602;SDS011;37954;51.980;5.850;2022-10-30T22:27:29;6.68;;;5.57;;
51602;SDS011;37954;51.980;5.850;2022-10-30T22:31:40;8.90;;;6.25;;
51602;SDS011;37954;51.980;5.850;2022-10-30T22:35:52;7.25;;;5.75;;
51602;SDS011;37954;51.980;5.850;2022-10-30T22:40:04;10.35;;;6.25;;
51602;SDS011;37954;51.980;5.850;2022-10-30T22:44:16;11.10;;;6.25;;
51602;SDS011;37954;51.980;5.850;2022-10-30T22:48:28;8.88;;;6.82;;
51602;SDS011;37954;51.980;5.850;2022-10-30T22:52:40;8.40;;;7.43;;
51602;SDS011;37954;51.980;5.850;2022-10-30T22:56:52;10.50;;;7.13;;
51602;SDS011;37954;51.980;5.850;2022-10-30T23:01:16;13.63;;;7.43;;
51602;SDS011;37954;51.980;5.850;2022-10-30T23:05:29;12.18;;;7.53;;
51602;SDS011;37954;51.980;5.850;2022-10-30T23:09:40;9.95;;;7.55;;
51602;SDS011;37954;51.980;5.850;2022-10-30T23:13:52;10.00;;;7.43;;
51602;SDS011;37954;51.980;5.850;2022-10-30T23:18:04;10.18;;;7.38;;
51602;SDS011;37954;51.980;5.850;2022-10-30T23:22:15;9.50;;;6.32;;
51602;SDS011;37954;51.980;5.850;2022-10-30T23:26:28;7.43;;;6.65;;
51602;SDS011;37954;51.980;5.850;2022-10-30T23:30:42;11.98;;;7.22;;
51602;SDS011;37954;51.980;5.850;2022-10-30T23:34:54;9.80;;;7.15;;
51602;SDS011;37954;51.980;5.850;2022-10-30T23:39:06;8.57;;;6.40;;
51602;SDS011;37954;51.980;5.850;2022-10-30T23:43:20;8.90;;;6.70;;
51602;SDS011;37954;51.980;5.850;2022-10-30T23:47:32;10.30;;;6.93;;
51602;SDS011;37954;51.980;5.850;2022-10-30T23:51:43;8.93;;;6.70;;
51602;SDS011;37954;51.980;5.850;2022-10-30T23:55:55;8.70;;;6.60;;
